sensor_id;sensor_type;location;lat;lon;timestamp;P1;durP1;ratioP1;P2;durP2;ratioP2
12906;SDS011;6521;50.498;8.474;2023-09-08T00:02:41;8.82;;;4.93;;
12906;SDS011;6521;50.498;8.474;2023-09-08T00:05:32;6.10;;;5.32;;
12906;SDS011;6521;50.498;8.474;2023-09-08T00:08:23;6.85;;;4.70;;
12906;SDS011;6521;50.498;8.474;2023-09-08T00:11:14;5.50;;;5.00;;
12906;SDS011;6521;50.498;8.474;2023-09-08T00:14:05;7.00;;;4.70;;
12906;SDS011;6521;50.498;8.474;2023-09-08T00:16:56;5.50;;;5.00;;
12906;SDS011;6521;50.498;8.474;2023-09-08T00:19:47;10.68;;;5.13;;
12906;SDS011;6521;50.498;8.474;2023-09-08T00:22:37;6.63;;;5.40;;
12906;SDS011;6521;50.498;8.474;2023-09-08T00:25:28;6.50;;;5.22;;
12906;SDS011;6521;50.498;8.474;2023-09-08T00:28:19;11.75;;;5.07;;
12906;SDS011;6521;50.498;8.474;2023-09-08T00:31:10;8.48;;;5.10;;
12906;SDS011;6521;50.498;8.474;2023-09-08T00:34:00;8.23;;;5.00;;
12906;SDS011;6521;50.498;8.474;2023-09-08T00:36:51;7.63;;;4.95;;
12906;SDS011;6521;50.498;8.474;2023-09-08T00:39:42;5.43;;;4.90;;
12906;SDS011;6521;50.498;8.474;2023-09-08T00:42:33;5.30;;;4.80;;
12906;SDS011;6521;50.498;8.474;2023-09-08T00:45:26;7.72;;;5.70;;
12906;SDS011;6521;50.498;8.474;2023-09-08T00:48:20;9.02;;;5.07;;
12906;SDS011;6521;50.498;8.474;2023-09-08T00:51:11;5.65;;;5.15;;
12906;SDS011;6521;50.498;8.474;2023-09-08T00:54:02;6.60;;;5.03;;
12906;SDS011;6521;50.498;8.474;2023-09-08T00:56:56;8.25;;;5.32;;
12906;SDS011;6521;50.498;8.474;2023-09-08T00:59:47;6.00;;;5.10;;
12906;SDS011;6521;50.498;8.474;2023-09-08T01:02:38;6.28;;;5.68;;
12906;SDS011;6521;50.498;8.474;2023-09-08T01:05:29;6.20;;;5.30;;
12906;SDS011;6521;50.498;8.474;2023-09-08T01:08:20;6.72;;;5.47;;
12906;SDS011;6521;50.498;8.474;2023-09-08T01:11:12;5.78;;;5.28;;
12906;SDS011;6521;50.498;8.474;2023-09-08T01:14:03;5.47;;;4.78;;
12906;SDS011;6521;50.498;8.474;2023-09-08T01:16:54;9.63;;;5.50;;
12906;SDS011;6521;50.498;8.474;2023-09-08T01:19:44;8.93;;;4.97;;
12906;SDS011;6521;50.498;8.474;2023-09-08T01:26:04;5.85;;;5.32;;
12906;SDS011;6521;50.498;8.474;2023-09-08T01:28:59;6.72;;;5.18;;
12906;SDS011;6521;50.498;8.474;2023-09-08T01:31:52;6.13;;;5.53;;
12906;SDS011;6521;50.498;8.474;2023-09-08T01:34:43;6.45;;;5.78;;
12906;SDS011;6521;50.498;8.474;2023-09-08T01:37:33;6.00;;;5.22;;
12906;SDS011;6521;50.498;8.474;2023-09-08T01:40:24;7.32;;;5.88;;
12906;SDS011;6521;50.498;8.474;2023-09-08T01:43:15;8.38;;;5.20;;
12906;SDS011;6521;50.498;8.474;2023-09-08T01:46:05;6.15;;;5.55;;
12906;SDS011;6521;50.498;8.474;2023-09-08T01:48:56;7.22;;;5.40;;
12906;SDS011;6521;50.498;8.474;2023-09-08T01:51:47;6.75;;;5.38;;
12906;SDS011;6521;50.498;8.474;2023-09-08T01:54:38;6.15;;;5.55;;
12906;SDS011;6521;50.498;8.474;2023-09-08T01:57:28;5.90;;;5.30;;
12906;SDS011;6521;50.498;8.474;2023-09-08T02:00:19;6.38;;;5.78;;
12906;SDS011;6521;50.498;8.474;2023-09-08T02:03:10;6.35;;;5.32;;
12906;SDS011;6521;50.498;8.474;2023-09-08T02:06:01;6.13;;;5.53;;
12906;SDS011;6521;50.498;8.474;2023-09-08T02:08:52;7.50;;;5.18;;
12906;SDS011;6521;50.498;8.474;2023-09-08T02:11:42;8.90;;;5.50;;
12906;SDS011;6521;50.498;8.474;2023-09-08T02:14:33;6.05;;;5.45;;
12906;SDS011;6521;50.498;8.474;2023-09-08T02:17:24;7.15;;;5.95;;
12906;SDS011;6521;50.498;8.474;2023-09-08T02:20:14;6.63;;;5.25;;
12906;SDS011;6521;50.498;8.474;2023-09-08T02:23:05;9.73;;;5.88;;
12906;SDS011;6521;50.498;8.474;2023-09-08T02:25:58;8.13;;;5.53;;
12906;SDS011;6521;50.498;8.474;2023-09-08T02:28:48;7.18;;;5.50;;
12906;SDS011;6521;50.498;8.474;2023-09-08T02:31:41;7.78;;;5.57;;
12906;SDS011;6521;50.498;8.474;2023-09-08T02:34:36;6.18;;;5.68;;
12906;SDS011;6521;50.498;8.474;2023-09-08T02:37:31;8.15;;;5.45;;
12906;SDS011;6521;50.498;8.474;2023-09-08T02:40:22;9.00;;;5.72;;
12906;SDS011;6521;50.498;8.474;2023-09-08T02:43:13;6.03;;;5.47;;
12906;SDS011;6521;50.498;8.474;2023-09-08T02:46:06;5.97;;;5.45;;
12906;SDS011;6521;50.498;8.474;2023-09-08T02:49:00;8.15;;;6.00;;
12906;SDS011;6521;50.498;8.474;2023-09-08T02:51:52;8.90;;;6.10;;
12906;SDS011;6521;50.498;8.474;2023-09-08T02:54:43;7.00;;;5.80;;
12906;SDS011;6521;50.498;8.474;2023-09-08T02:57:33;7.90;;;5.63;;
12906;SDS011;6521;50.498;8.474;2023-09-08T03:00:24;6.15;;;5.53;;
12906;SDS011;6521;50.498;8.474;2023-09-08T03:03:15;7.57;;;6.00;;
12906;SDS011;6521;50.498;8.474;2023-09-08T03:06:06;8.13;;;5.90;;
12906;SDS011;6521;50.498;8.474;2023-09-08T03:08:58;6.00;;;5.50;;
12906;SDS011;6521;50.498;8.474;2023-09-08T03:11:49;6.63;;;6.03;;
12906;SDS011;6521;50.498;8.474;2023-09-08T03:14:39;6.53;;;5.93;;
12906;SDS011;6521;50.498;8.474;2023-09-08T03:17:31;6.63;;;5.65;;
12906;SDS011;6521;50.498;8.474;2023-09-08T03:20:21;7.20;;;5.72;;
12906;SDS011;6521;50.498;8.474;2023-09-08T03:23:13;6.80;;;6.10;;
12906;SDS011;6521;50.498;8.474;2023-09-08T03:26:04;9.80;;;6.22;;
12906;SDS011;6521;50.498;8.474;2023-09-08T03:28:56;7.25;;;6.22;;
12906;SDS011;6521;50.498;8.474;2023-09-08T03:31:47;7.40;;;5.68;;
12906;SDS011;6521;50.498;8.474;2023-09-08T03:34:37;14.60;;;6.32;;
12906;SDS011;6521;50.498;8.474;2023-09-08T03:37:31;6.80;;;6.03;;
12906;SDS011;6521;50.498;8.474;2023-09-08T03:40:22;11.65;;;6.53;;
12906;SDS011;6521;50.498;8.474;2023-09-08T03:43:13;6.88;;;6.22;;
12906;SDS011;6521;50.498;8.474;2023-09-08T03:46:04;7.20;;;6.50;;
12906;SDS011;6521;50.498;8.474;2023-09-08T03:48:54;7.18;;;5.93;;
12906;SDS011;6521;50.498;8.474;2023-09-08T03:51:50;10.55;;;7.07;;
12906;SDS011;6521;50.498;8.474;2023-09-08T03:54:41;8.60;;;5.95;;
12906;SDS011;6521;50.498;8.474;2023-09-08T03:57:32;7.85;;;5.93;;
12906;SDS011;6521;50.498;8.474;2023-09-08T04:00:22;9.07;;;6.00;;
12906;SDS011;6521;50.498;8.474;2023-09-08T04:03:13;6.28;;;5.68;;
12906;SDS011;6521;50.498;8.474;2023-09-08T04:06:04;6.53;;;5.90;;
12906;SDS011;6521;50.498;8.474;2023-09-08T04:08:55;6.88;;;5.53;;
12906;SDS011;6521;50.498;8.474;2023-09-08T04:11:46;9.02;;;4.85;;
12906;SDS011;6521;50.498;8.474;2023-09-08T04:14:36;5.97;;;4.90;;
12906;SDS011;6521;50.498;8.474;2023-09-08T04:17:27;7.65;;;5.57;;
12906;SDS011;6521;50.498;8.474;2023-09-08T04:20:18;7.45;;;5.20;;
12906;SDS011;6521;50.498;8.474;2023-09-08T04:23:09;5.10;;;4.70;;
12906;SDS011;6521;50.498;8.474;2023-09-08T04:26:00;7.55;;;5.25;;
12906;SDS011;6521;50.498;8.474;2023-09-08T04:28:51;8.38;;;5.10;;
12906;SDS011;6521;50.498;8.474;2023-09-08T04:31:43;4.90;;;4.40;;
12906;SDS011;6521;50.498;8.474;2023-09-08T04:34:40;5.43;;;4.93;;
12906;SDS011;6521;50.498;8.474;2023-09-08T04:37:32;5.22;;;4.80;;
12906;SDS011;6521;50.498;8.474;2023-09-08T04:40:24;4.82;;;4.35;;
12906;SDS011;6521;50.498;8.474;2023-09-08T04:43:14;11.80;;;5.20;;
12906;SDS011;6521;50.498;8.474;2023-09-08T04:46:05;10.32;;;6.45;;
12906;SDS011;6521;50.498;8.474;2023-09-08T04:48:56;14.68;;;5.60;;
12906;SDS011;6521;50.498;8.474;2023-09-08T04:51:48;6.72;;;5.78;;
12906;SDS011;6521;50.498;8.474;2023-09-08T04:54:42;9.60;;;5.93;;
12906;SDS011;6521;50.498;8.474;2023-09-08T04:57:33;7.53;;;5.55;;
12906;SDS011;6521;50.498;8.474;2023-09-08T05:00:24;8.18;;;5.25;;
12906;SDS011;6521;50.498;8.474;2023-09-08T05:03:15;7.50;;;5.53;;
12906;SDS011;6521;50.498;8.474;2023-09-08T05:06:06;9.02;;;5.60;;
12906;SDS011;6521;50.498;8.474;2023-09-08T05:08:58;9.88;;;5.72;;
12906;SDS011;6521;50.498;8.474;2023-09-08T05:11:50;23.23;;;5.82;;
12906;SDS011;6521;50.498;8.474;2023-09-08T05:14:41;10.95;;;5.45;;
12906;SDS011;6521;50.498;8.474;2023-09-08T05:17:32;9.80;;;5.57;;
12906;SDS011;6521;50.498;8.474;2023-09-08T05:20:24;9.70;;;5.43;;
12906;SDS011;6521;50.498;8.474;2023-09-08T05:23:15;12.98;;;5.22;;
12906;SDS011;6521;50.498;8.474;2023-09-08T05:26:06;7.25;;;5.40;;
12906;SDS011;6521;50.498;8.474;2023-09-08T05:28:57;9.38;;;5.18;;
12906;SDS011;6521;50.498;8.474;2023-09-08T05:31:48;11.73;;;5.60;;
12906;SDS011;6521;50.498;8.474;2023-09-08T05:34:40;11.52;;;5.50;;
12906;SDS011;6521;50.498;8.474;2023-09-08T05:37:31;8.77;;;5.05;;
12906;SDS011;6521;50.498;8.474;2023-09-08T05:40:22;6.47;;;4.78;;
12906;SDS011;6521;50.498;8.474;2023-09-08T05:43:15;10.68;;;5.03;;
12906;SDS011;6521;50.498;8.474;2023-09-08T05:46:05;6.35;;;4.88;;
12906;SDS011;6521;50.498;8.474;2023-09-08T05:48:56;5.82;;;5.22;;
12906;SDS011;6521;50.498;8.474;2023-09-08T05:51:47;6.78;;;4.82;;
12906;SDS011;6521;50.498;8.474;2023-09-08T05:54:38;7.25;;;4.53;;
12906;SDS011;6521;50.498;8.474;2023-09-08T05:57:29;5.07;;;4.55;;
12906;SDS011;6521;50.498;8.474;2023-09-08T06:00:21;6.20;;;4.93;;
12906;SDS011;6521;50.498;8.474;2023-09-08T06:03:14;7.82;;;5.00;;
12906;SDS011;6521;50.498;8.474;2023-09-08T06:06:06;5.97;;;4.72;;
12906;SDS011;6521;50.498;8.474;2023-09-08T06:08:56;5.88;;;5.00;;
12906;SDS011;6521;50.498;8.474;2023-09-08T06:11:48;4.93;;;4.40;;
12906;SDS011;6521;50.498;8.474;2023-09-08T06:14:39;6.90;;;4.95;;
12906;SDS011;6521;50.498;8.474;2023-09-08T06:17:30;5.40;;;4.57;;
12906;SDS011;6521;50.498;8.474;2023-09-08T06:20:21;5.68;;;4.88;;
12906;SDS011;6521;50.498;8.474;2023-09-08T06:23:12;6.18;;;5.07;;
12906;SDS011;6521;50.498;8.474;2023-09-08T06:26:03;4.97;;;4.47;;
12906;SDS011;6521;50.498;8.474;2023-09-08T06:28:57;6.22;;;4.45;;
12906;SDS011;6521;50.498;8.474;2023-09-08T06:31:48;5.60;;;5.10;;
12906;SDS011;6521;50.498;8.474;2023-09-08T06:34:39;5.50;;;5.00;;
12906;SDS011;6521;50.498;8.474;2023-09-08T06:37:34;5.55;;;4.75;;
12906;SDS011;6521;50.498;8.474;2023-09-08T06:40:29;5.55;;;4.63;;
12906;SDS011;6521;50.498;8.474;2023-09-08T06:43:20;5.38;;;4.55;;
12906;SDS011;6521;50.498;8.474;2023-09-08T06:46:20;5.07;;;4.57;;
12906;SDS011;6521;50.498;8.474;2023-09-08T06:49:12;6.22;;;4.90;;
12906;SDS011;6521;50.498;8.474;2023-09-08T06:52:03;4.93;;;4.53;;
12906;SDS011;6521;50.498;8.474;2023-09-08T06:54:54;5.20;;;4.40;;
12906;SDS011;6521;50.498;8.474;2023-09-08T06:57:45;6.55;;;4.78;;
12906;SDS011;6521;50.498;8.474;2023-09-08T07:00:36;5.28;;;4.60;;
12906;SDS011;6521;50.498;8.474;2023-09-08T07:03:28;5.07;;;4.57;;
12906;SDS011;6521;50.498;8.474;2023-09-08T07:06:20;6.72;;;4.10;;
12906;SDS011;6521;50.498;8.474;2023-09-08T07:09:12;5.60;;;5.03;;
12906;SDS011;6521;50.498;8.474;2023-09-08T07:12:04;4.65;;;4.25;;
12906;SDS011;6521;50.498;8.474;2023-09-08T07:14:55;5.43;;;4.65;;
12906;SDS011;6521;50.498;8.474;2023-09-08T07:17:46;4.90;;;4.45;;
12906;SDS011;6521;50.498;8.474;2023-09-08T07:20:37;4.95;;;4.45;;
12906;SDS011;6521;50.498;8.474;2023-09-08T07:23:28;5.15;;;4.65;;
12906;SDS011;6521;50.498;8.474;2023-09-08T07:26:19;6.35;;;4.38;;
12906;SDS011;6521;50.498;8.474;2023-09-08T07:29:10;4.47;;;4.15;;
12906;SDS011;6521;50.498;8.474;2023-09-08T07:32:02;6.13;;;4.57;;
12906;SDS011;6521;50.498;8.474;2023-09-08T07:34:54;5.05;;;4.63;;
12906;SDS011;6521;50.498;8.474;2023-09-08T07:37:46;5.05;;;4.40;;
12906;SDS011;6521;50.498;8.474;2023-09-08T07:40:38;4.70;;;4.30;;
12906;SDS011;6521;50.498;8.474;2023-09-08T07:43:30;4.53;;;4.13;;
12906;SDS011;6521;50.498;8.474;2023-09-08T07:46:21;4.50;;;4.10;;
12906;SDS011;6521;50.498;8.474;2023-09-08T07:49:12;5.05;;;4.43;;
12906;SDS011;6521;50.498;8.474;2023-09-08T07:52:03;4.57;;;4.10;;
12906;SDS011;6521;50.498;8.474;2023-09-08T07:54:54;4.45;;;4.05;;
12906;SDS011;6521;50.498;8.474;2023-09-08T07:57:45;5.82;;;4.55;;
12906;SDS011;6521;50.498;8.474;2023-09-08T08:00:36;4.90;;;3.90;;
12906;SDS011;6521;50.498;8.474;2023-09-08T08:03:27;4.10;;;3.80;;
12906;SDS011;6521;50.498;8.474;2023-09-08T08:06:18;4.80;;;4.25;;
12906;SDS011;6521;50.498;8.474;2023-09-08T08:09:08;4.75;;;4.25;;
12906;SDS011;6521;50.498;8.474;2023-09-08T08:12:00;4.53;;;4.15;;
12906;SDS011;6521;50.498;8.474;2023-09-08T08:14:51;3.88;;;3.47;;
12906;SDS011;6521;50.498;8.474;2023-09-08T08:17:42;4.45;;;4.05;;
12906;SDS011;6521;50.498;8.474;2023-09-08T08:20:33;4.25;;;3.95;;
12906;SDS011;6521;50.498;8.474;2023-09-08T08:23:26;4.38;;;4.00;;
12906;SDS011;6521;50.498;8.474;2023-09-08T08:26:17;4.13;;;3.83;;
12906;SDS011;6521;50.498;8.474;2023-09-08T08:29:08;4.22;;;3.83;;
12906;SDS011;6521;50.498;8.474;2023-09-08T08:31:59;4.28;;;3.92;;
12906;SDS011;6521;50.498;8.474;2023-09-08T08:34:50;6.30;;;3.83;;
12906;SDS011;6521;50.498;8.474;2023-09-08T08:37:41;4.30;;;4.00;;
12906;SDS011;6521;50.498;8.474;2023-09-08T08:40:32;4.60;;;4.20;;
12906;SDS011;6521;50.498;8.474;2023-09-08T08:43:24;4.35;;;3.95;;
12906;SDS011;6521;50.498;8.474;2023-09-08T08:46:15;4.18;;;3.88;;
12906;SDS011;6521;50.498;8.474;2023-09-08T08:49:08;4.63;;;4.03;;
12906;SDS011;6521;50.498;8.474;2023-09-08T08:52:01;4.43;;;3.90;;
12906;SDS011;6521;50.498;8.474;2023-09-08T08:54:57;3.80;;;3.45;;
12906;SDS011;6521;50.498;8.474;2023-09-08T08:57:48;3.83;;;3.53;;
12906;SDS011;6521;50.498;8.474;2023-09-08T09:00:39;4.25;;;3.85;;
12906;SDS011;6521;50.498;8.474;2023-09-08T09:03:30;4.07;;;3.78;;
12906;SDS011;6521;50.498;8.474;2023-09-08T09:06:21;7.72;;;4.00;;
12906;SDS011;6521;50.498;8.474;2023-09-08T09:09:12;4.90;;;3.80;;
12906;SDS011;6521;50.498;8.474;2023-09-08T09:12:03;4.45;;;3.88;;
12906;SDS011;6521;50.498;8.474;2023-09-08T09:14:54;4.57;;;4.18;;
12906;SDS011;6521;50.498;8.474;2023-09-08T09:17:45;4.60;;;4.20;;
12906;SDS011;6521;50.498;8.474;2023-09-08T09:20:53;4.00;;;3.70;;
12906;SDS011;6521;50.498;8.474;2023-09-08T09:23:46;3.95;;;3.65;;
12906;SDS011;6521;50.498;8.474;2023-09-08T09:26:36;4.10;;;3.80;;
12906;SDS011;6521;50.498;8.474;2023-09-08T09:29:28;4.43;;;4.03;;
12906;SDS011;6521;50.498;8.474;2023-09-08T09:32:22;4.25;;;3.65;;
12906;SDS011;6521;50.498;8.474;2023-09-08T09:35:14;4.00;;;3.70;;
12906;SDS011;6521;50.498;8.474;2023-09-08T09:38:04;4.32;;;4.00;;
12906;SDS011;6521;50.498;8.474;2023-09-08T09:40:55;4.15;;;3.85;;
12906;SDS011;6521;50.498;8.474;2023-09-08T09:43:46;4.63;;;4.20;;
12906;SDS011;6521;50.498;8.474;2023-09-08T09:46:37;4.07;;;3.75;;
12906;SDS011;6521;50.498;8.474;2023-09-08T09:49:28;4.50;;;4.10;;
12906;SDS011;6521;50.498;8.474;2023-09-08T09:52:22;4.70;;;3.70;;
12906;SDS011;6521;50.498;8.474;2023-09-08T09:55:16;4.20;;;3.80;;
12906;SDS011;6521;50.498;8.474;2023-09-08T09:58:08;4.53;;;4.07;;
12906;SDS011;6521;50.498;8.474;2023-09-08T10:01:01;4.30;;;3.85;;
12906;SDS011;6521;50.498;8.474;2023-09-08T10:03:53;4.93;;;3.90;;
12906;SDS011;6521;50.498;8.474;2023-09-08T10:06:44;4.50;;;4.10;;
12906;SDS011;6521;50.498;8.474;2023-09-08T10:09:35;4.43;;;4.05;;
12906;SDS011;6521;50.498;8.474;2023-09-08T10:12:27;4.35;;;4.00;;
12906;SDS011;6521;50.498;8.474;2023-09-08T10:15:22;4.40;;;4.00;;
12906;SDS011;6521;50.498;8.474;2023-09-08T10:18:14;4.35;;;3.95;;
12906;SDS011;6521;50.498;8.474;2023-09-08T10:21:09;11.02;;;4.32;;
12906;SDS011;6521;50.498;8.474;2023-09-08T10:24:03;4.70;;;4.30;;
12906;SDS011;6521;50.498;8.474;2023-09-08T10:30:00;6.63;;;4.35;;
12906;SDS011;6521;50.498;8.474;2023-09-08T10:32:53;7.72;;;4.03;;
12906;SDS011;6521;50.498;8.474;2023-09-08T10:35:45;5.45;;;4.47;;
12906;SDS011;6521;50.498;8.474;2023-09-08T10:38:37;4.32;;;3.92;;
12906;SDS011;6521;50.498;8.474;2023-09-08T10:41:27;11.25;;;3.95;;
12906;SDS011;6521;50.498;8.474;2023-09-08T10:44:19;4.60;;;4.20;;
12906;SDS011;6521;50.498;8.474;2023-09-08T10:47:12;8.35;;;3.80;;
12906;SDS011;6521;50.498;8.474;2023-09-08T10:50:03;6.57;;;4.30;;
12906;SDS011;6521;50.498;8.474;2023-09-08T10:56:08;7.60;;;4.35;;
12906;SDS011;6521;50.498;8.474;2023-09-08T10:58:59;4.90;;;4.30;;
12906;SDS011;6521;50.498;8.474;2023-09-08T11:01:50;4.28;;;3.67;;
12906;SDS011;6521;50.498;8.474;2023-09-08T11:04:44;5.07;;;4.47;;
12906;SDS011;6521;50.498;8.474;2023-09-08T11:07:36;4.35;;;3.90;;
12906;SDS011;6521;50.498;8.474;2023-09-08T11:10:28;5.25;;;4.35;;
12906;SDS011;6521;50.498;8.474;2023-09-08T11:13:19;5.28;;;4.13;;
12906;SDS011;6521;50.498;8.474;2023-09-08T11:16:10;4.75;;;4.35;;
12906;SDS011;6521;50.498;8.474;2023-09-08T11:19:01;4.70;;;4.30;;
12906;SDS011;6521;50.498;8.474;2023-09-08T11:21:55;4.22;;;3.83;;
12906;SDS011;6521;50.498;8.474;2023-09-08T11:24:46;5.15;;;4.65;;
12906;SDS011;6521;50.498;8.474;2023-09-08T11:27:37;23.85;;;4.90;;
12906;SDS011;6521;50.498;8.474;2023-09-08T11:30:30;8.45;;;5.43;;
12906;SDS011;6521;50.498;8.474;2023-09-08T11:33:21;7.32;;;4.97;;
12906;SDS011;6521;50.498;8.474;2023-09-08T11:36:15;6.55;;;5.18;;
12906;SDS011;6521;50.498;8.474;2023-09-08T11:39:06;8.32;;;4.63;;
12906;SDS011;6521;50.498;8.474;2023-09-08T11:42:00;6.28;;;4.78;;
12906;SDS011;6521;50.498;8.474;2023-09-08T11:44:51;11.93;;;5.00;;
12906;SDS011;6521;50.498;8.474;2023-09-08T11:47:44;8.25;;;5.28;;
12906;SDS011;6521;50.498;8.474;2023-09-08T11:50:35;7.95;;;5.20;;
12906;SDS011;6521;50.498;8.474;2023-09-08T11:53:26;7.93;;;5.22;;
12906;SDS011;6521;50.498;8.474;2023-09-08T11:56:17;6.13;;;5.13;;
12906;SDS011;6521;50.498;8.474;2023-09-08T11:59:08;7.38;;;5.28;;
12906;SDS011;6521;50.498;8.474;2023-09-08T12:02:00;6.72;;;4.95;;
12906;SDS011;6521;50.498;8.474;2023-09-08T12:04:52;6.45;;;4.70;;
12906;SDS011;6521;50.498;8.474;2023-09-08T12:07:44;5.10;;;4.53;;
12906;SDS011;6521;50.498;8.474;2023-09-08T12:10:41;4.95;;;4.45;;
12906;SDS011;6521;50.498;8.474;2023-09-08T12:13:32;7.57;;;4.85;;
12906;SDS011;6521;50.498;8.474;2023-09-08T12:16:24;5.00;;;4.50;;
12906;SDS011;6521;50.498;8.474;2023-09-08T12:19:28;4.43;;;4.00;;
12906;SDS011;6521;50.498;8.474;2023-09-08T12:22:20;6.30;;;4.60;;
12906;SDS011;6521;50.498;8.474;2023-09-08T12:25:12;7.53;;;4.50;;
12906;SDS011;6521;50.498;8.474;2023-09-08T12:28:03;6.15;;;4.72;;
12906;SDS011;6521;50.498;8.474;2023-09-08T12:30:54;7.07;;;4.35;;
12906;SDS011;6521;50.498;8.474;2023-09-08T12:33:45;5.03;;;4.43;;
12906;SDS011;6521;50.498;8.474;2023-09-08T12:36:36;6.60;;;4.30;;
12906;SDS011;6521;50.498;8.474;2023-09-08T12:39:27;4.50;;;3.90;;
12906;SDS011;6521;50.498;8.474;2023-09-08T12:42:18;5.43;;;4.50;;
12906;SDS011;6521;50.498;8.474;2023-09-08T12:45:10;5.13;;;4.28;;
12906;SDS011;6521;50.498;8.474;2023-09-08T12:48:01;4.75;;;4.30;;
12906;SDS011;6521;50.498;8.474;2023-09-08T12:50:53;5.18;;;4.22;;
12906;SDS011;6521;50.498;8.474;2023-09-08T12:53:44;5.97;;;4.75;;
12906;SDS011;6521;50.498;8.474;2023-09-08T12:56:35;5.25;;;4.38;;
12906;SDS011;6521;50.498;8.474;2023-09-08T12:59:26;4.40;;;4.00;;
12906;SDS011;6521;50.498;8.474;2023-09-08T13:02:17;5.28;;;4.47;;
12906;SDS011;6521;50.498;8.474;2023-09-08T13:05:08;5.47;;;4.50;;
12906;SDS011;6521;50.498;8.474;2023-09-08T13:07:58;9.82;;;4.50;;
12906;SDS011;6521;50.498;8.474;2023-09-08T13:10:49;4.53;;;4.13;;
12906;SDS011;6521;50.498;8.474;2023-09-08T13:13:41;4.85;;;4.32;;
12906;SDS011;6521;50.498;8.474;2023-09-08T13:16:32;6.50;;;4.00;;
12906;SDS011;6521;50.498;8.474;2023-09-08T13:19:24;5.18;;;3.92;;
12906;SDS011;6521;50.498;8.474;2023-09-08T13:22:14;4.65;;;4.25;;
12906;SDS011;6521;50.498;8.474;2023-09-08T13:25:05;5.60;;;4.85;;
12906;SDS011;6521;50.498;8.474;2023-09-08T13:27:56;4.88;;;4.10;;
12906;SDS011;6521;50.498;8.474;2023-09-08T13:30:48;4.57;;;4.18;;
12906;SDS011;6521;50.498;8.474;2023-09-08T13:33:39;6.28;;;4.00;;
12906;SDS011;6521;50.498;8.474;2023-09-08T13:36:30;5.63;;;3.83;;
12906;SDS011;6521;50.498;8.474;2023-09-08T13:39:20;4.97;;;4.55;;
12906;SDS011;6521;50.498;8.474;2023-09-08T13:42:11;4.72;;;4.22;;
12906;SDS011;6521;50.498;8.474;2023-09-08T13:45:02;5.47;;;3.97;;
12906;SDS011;6521;50.498;8.474;2023-09-08T13:47:53;4.47;;;4.07;;
12906;SDS011;6521;50.498;8.474;2023-09-08T13:50:44;7.15;;;4.10;;
12906;SDS011;6521;50.498;8.474;2023-09-08T13:53:35;4.70;;;4.30;;
12906;SDS011;6521;50.498;8.474;2023-09-08T13:56:25;5.80;;;3.60;;
12906;SDS011;6521;50.498;8.474;2023-09-08T13:59:16;6.63;;;3.88;;
12906;SDS011;6521;50.498;8.474;2023-09-08T14:02:07;6.45;;;3.78;;
12906;SDS011;6521;50.498;8.474;2023-09-08T14:04:58;5.10;;;4.20;;
12906;SDS011;6521;50.498;8.474;2023-09-08T14:07:49;4.32;;;3.92;;
12906;SDS011;6521;50.498;8.474;2023-09-08T14:10:39;4.80;;;4.20;;
12906;SDS011;6521;50.498;8.474;2023-09-08T14:13:30;5.72;;;4.22;;
12906;SDS011;6521;50.498;8.474;2023-09-08T14:16:21;5.55;;;4.10;;
12906;SDS011;6521;50.498;8.474;2023-09-08T14:19:11;4.32;;;3.90;;
12906;SDS011;6521;50.498;8.474;2023-09-08T14:22:02;5.97;;;3.88;;
12906;SDS011;6521;50.498;8.474;2023-09-08T14:24:53;5.80;;;4.43;;
12906;SDS011;6521;50.498;8.474;2023-09-08T14:27:44;7.25;;;3.85;;
12906;SDS011;6521;50.498;8.474;2023-09-08T14:30:35;7.15;;;4.28;;
12906;SDS011;6521;50.498;8.474;2023-09-08T14:33:26;4.00;;;3.60;;
12906;SDS011;6521;50.498;8.474;2023-09-08T14:36:17;7.13;;;3.90;;
12906;SDS011;6521;50.498;8.474;2023-09-08T14:39:09;4.75;;;3.47;;
12906;SDS011;6521;50.498;8.474;2023-09-08T14:41:59;5.32;;;4.18;;
12906;SDS011;6521;50.498;8.474;2023-09-08T14:44:50;5.03;;;4.20;;
12906;SDS011;6521;50.498;8.474;2023-09-08T14:47:42;4.05;;;3.75;;
12906;SDS011;6521;50.498;8.474;2023-09-08T14:50:33;4.20;;;3.67;;
12906;SDS011;6521;50.498;8.474;2023-09-08T14:53:23;3.90;;;3.60;;
12906;SDS011;6521;50.498;8.474;2023-09-08T14:56:14;5.80;;;3.90;;
12906;SDS011;6521;50.498;8.474;2023-09-08T14:59:05;6.18;;;4.07;;
12906;SDS011;6521;50.498;8.474;2023-09-08T15:01:56;4.45;;;4.05;;
12906;SDS011;6521;50.498;8.474;2023-09-08T15:04:47;4.13;;;3.72;;
12906;SDS011;6521;50.498;8.474;2023-09-08T15:07:38;4.13;;;3.72;;
12906;SDS011;6521;50.498;8.474;2023-09-08T15:10:28;4.57;;;4.07;;
12906;SDS011;6521;50.498;8.474;2023-09-08T15:13:19;6.88;;;4.00;;
12906;SDS011;6521;50.498;8.474;2023-09-08T15:16:10;3.83;;;3.35;;
12906;SDS011;6521;50.498;8.474;2023-09-08T15:19:01;4.40;;;3.92;;
12906;SDS011;6521;50.498;8.474;2023-09-08T15:21:52;4.65;;;3.88;;
12906;SDS011;6521;50.498;8.474;2023-09-08T15:24:43;4.60;;;3.90;;
12906;SDS011;6521;50.498;8.474;2023-09-08T15:27:34;5.40;;;4.10;;
12906;SDS011;6521;50.498;8.474;2023-09-08T15:30:25;4.15;;;3.78;;
12906;SDS011;6521;50.498;8.474;2023-09-08T15:33:16;4.28;;;3.88;;
12906;SDS011;6521;50.498;8.474;2023-09-08T15:36:07;6.13;;;4.00;;
12906;SDS011;6521;50.498;8.474;2023-09-08T15:38:58;4.50;;;3.80;;
12906;SDS011;6521;50.498;8.474;2023-09-08T15:41:48;5.97;;;3.53;;
12906;SDS011;6521;50.498;8.474;2023-09-08T15:44:39;5.00;;;3.72;;
12906;SDS011;6521;50.498;8.474;2023-09-08T15:47:30;4.55;;;4.15;;
12906;SDS011;6521;50.498;8.474;2023-09-08T15:50:21;4.88;;;3.58;;
12906;SDS011;6521;50.498;8.474;2023-09-08T15:53:12;4.38;;;3.97;;
12906;SDS011;6521;50.498;8.474;2023-09-08T15:56:02;4.15;;;3.75;;
12906;SDS011;6521;50.498;8.474;2023-09-08T15:58:54;4.13;;;3.50;;
12906;SDS011;6521;50.498;8.474;2023-09-08T16:01:45;11.75;;;4.28;;
12906;SDS011;6521;50.498;8.474;2023-09-08T16:04:35;4.18;;;3.72;;
12906;SDS011;6521;50.498;8.474;2023-09-08T16:07:26;5.53;;;3.92;;
12906;SDS011;6521;50.498;8.474;2023-09-08T16:10:17;4.13;;;3.72;;
12906;SDS011;6521;50.498;8.474;2023-09-08T16:13:08;5.30;;;3.67;;
12906;SDS011;6521;50.498;8.474;2023-09-08T16:15:59;4.35;;;3.95;;
12906;SDS011;6521;50.498;8.474;2023-09-08T16:18:50;5.80;;;3.67;;
12906;SDS011;6521;50.498;8.474;2023-09-08T16:21:40;4.47;;;3.72;;
12906;SDS011;6521;50.498;8.474;2023-09-08T16:24:33;4.35;;;3.83;;
12906;SDS011;6521;50.498;8.474;2023-09-08T16:27:23;4.60;;;3.90;;
12906;SDS011;6521;50.498;8.474;2023-09-08T16:30:14;3.72;;;3.15;;
12906;SDS011;6521;50.498;8.474;2023-09-08T16:33:05;4.18;;;3.78;;
12906;SDS011;6521;50.498;8.474;2023-09-08T16:35:56;3.75;;;3.45;;
12906;SDS011;6521;50.498;8.474;2023-09-08T16:38:47;5.72;;;3.75;;
12906;SDS011;6521;50.498;8.474;2023-09-08T16:41:37;4.45;;;3.70;;
12906;SDS011;6521;50.498;8.474;2023-09-08T16:44:28;3.97;;;3.20;;
12906;SDS011;6521;50.498;8.474;2023-09-08T16:47:19;4.10;;;3.70;;
12906;SDS011;6521;50.498;8.474;2023-09-08T16:50:10;5.40;;;3.53;;
12906;SDS011;6521;50.498;8.474;2023-09-08T16:53:01;3.78;;;3.47;;
12906;SDS011;6521;50.498;8.474;2023-09-08T16:55:53;4.70;;;3.53;;
12906;SDS011;6521;50.498;8.474;2023-09-08T16:58:44;3.55;;;3.22;;
12906;SDS011;6521;50.498;8.474;2023-09-08T17:01:36;4.10;;;3.35;;
12906;SDS011;6521;50.498;8.474;2023-09-08T17:04:27;4.53;;;4.13;;
12906;SDS011;6521;50.498;8.474;2023-09-08T17:07:18;4.00;;;3.67;;
12906;SDS011;6521;50.498;8.474;2023-09-08T17:10:09;4.30;;;3.67;;
12906;SDS011;6521;50.498;8.474;2023-09-08T17:13:00;4.43;;;4.03;;
12906;SDS011;6521;50.498;8.474;2023-09-08T17:15:51;3.45;;;3.15;;
12906;SDS011;6521;50.498;8.474;2023-09-08T17:18:42;3.85;;;3.45;;
12906;SDS011;6521;50.498;8.474;2023-09-08T17:21:32;4.07;;;3.78;;
12906;SDS011;6521;50.498;8.474;2023-09-08T17:24:23;3.92;;;3.63;;
12906;SDS011;6521;50.498;8.474;2023-09-08T17:27:14;4.88;;;3.50;;
12906;SDS011;6521;50.498;8.474;2023-09-08T17:30:05;5.07;;;3.50;;
12906;SDS011;6521;50.498;8.474;2023-09-08T17:32:56;4.65;;;3.50;;
12906;SDS011;6521;50.498;8.474;2023-09-08T17:35:48;4.72;;;3.20;;
12906;SDS011;6521;50.498;8.474;2023-09-08T17:38:39;3.75;;;3.45;;